createdAt,value
2018-08-16T00:01:45.156Z,63.90
2018-08-16T00:04:13.681Z,64.20
2018-08-16T00:06:42.591Z,64.40
2018-08-16T00:09:11.112Z,64.40
2018-08-16T00:11:39.700Z,64.50
2018-08-16T00:14:08.266Z,64.50
2018-08-16T00:16:36.822Z,64.50
2018-08-16T00:19:06.000Z,64.50
2018-08-16T00:21:34.616Z,64.50
2018-08-16T00:24:03.180Z,64.60
2018-08-16T00:26:31.684Z,64.70
2018-08-16T00:29:00.164Z,64.70
2018-08-16T00:31:28.676Z,64.70
2018-08-16T00:33:57.300Z,64.80
2018-08-16T00:36:25.813Z,64.60
2018-08-16T00:38:54.308Z,64.70
2018-08-16T00:41:22.862Z,65.60
2018-08-16T00:43:51.348Z,64.80
2018-08-16T00:46:19.895Z,65.00
2018-08-16T00:48:48.511Z,65.10
2018-08-16T00:51:17.019Z,65.00
2018-08-16T00:53:45.503Z,65.20
2018-08-16T00:56:13.996Z,65.30
2018-08-16T00:58:42.680Z,65.40
2018-08-16T01:01:11.312Z,65.60
2018-08-16T01:03:39.844Z,65.50
2018-08-16T01:06:08.376Z,65.60
2018-08-16T01:08:36.883Z,65.60
2018-08-16T01:11:05.490Z,65.70
2018-08-16T01:13:34.028Z,65.80
2018-08-16T01:16:02.648Z,65.80
2018-08-16T01:18:31.324Z,65.90
2018-08-16T01:20:59.846Z,66.00
2018-08-16T01:23:28.353Z,66.10
2018-08-16T01:25:57.003Z,66.20
2018-08-16T01:28:25.566Z,66.20
2018-08-16T01:30:54.069Z,66.20
2018-08-16T01:33:22.610Z,66.40
2018-08-16T01:35:51.094Z,66.40
2018-08-16T01:38:19.643Z,66.40
2018-08-16T01:40:48.148Z,66.50
2018-08-16T01:43:16.771Z,66.50
2018-08-16T01:45:45.239Z,66.60
2018-08-16T01:48:14.271Z,66.50
2018-08-16T01:50:42.784Z,66.50
2018-08-16T01:53:11.645Z,67.50
2018-08-16T01:55:40.148Z,66.90
2018-08-16T01:58:08.651Z,67.20
2018-08-16T02:00:37.200Z,67.30
2018-08-16T02:03:06.186Z,67.30
2018-08-16T02:05:34.821Z,67.10
2018-08-16T02:08:03.343Z,67.00
2018-08-16T02:10:31.965Z,67.00
2018-08-16T02:13:00.466Z,68.00
2018-08-16T02:15:29.018Z,67.10
2018-08-16T02:17:57.587Z,67.30
2018-08-16T02:20:26.112Z,67.30
2018-08-16T02:22:54.723Z,67.40
2018-08-16T02:25:23.220Z,67.40
2018-08-16T02:27:51.842Z,67.40
2018-08-16T02:30:20.444Z,68.70
2018-08-16T02:32:48.928Z,67.60
2018-08-16T02:35:17.454Z,67.60
2018-08-16T02:37:45.947Z,67.80
2018-08-16T02:40:14.526Z,68.00
2018-08-16T02:42:43.061Z,68.10
2018-08-16T02:45:11.571Z,68.20
2018-08-16T02:47:40.053Z,68.30
2018-08-16T02:50:08.579Z,68.20
2018-08-16T02:52:37.123Z,68.40
2018-08-16T02:55:06.565Z,68.70
2018-08-16T02:57:35.187Z,68.70
2018-08-16T03:00:04.727Z,68.50
2018-08-16T03:02:33.253Z,68.40
2018-08-16T03:05:01.769Z,68.30
2018-08-16T03:07:30.456Z,68.60
2018-08-16T03:09:58.991Z,68.90
2018-08-16T03:12:27.552Z,69.30
2018-08-16T03:14:56.073Z,68.70
2018-08-16T03:17:24.882Z,68.70
2018-08-16T03:19:53.351Z,69.00
2018-08-16T03:22:21.879Z,69.10
2018-08-16T03:24:50.352Z,69.10
2018-08-16T03:27:18.868Z,69.20
2018-08-16T03:29:47.433Z,69.60
2018-08-16T03:32:15.920Z,69.50
2018-08-16T03:34:44.392Z,69.40
2018-08-16T03:37:12.887Z,69.40
2018-08-16T03:39:41.478Z,69.50
2018-08-16T03:42:10.020Z,69.50
2018-08-16T03:44:38.518Z,69.50
2018-08-16T03:47:07.008Z,69.50
2018-08-16T03:49:35.539Z,69.50
2018-08-16T03:52:04.691Z,69.40
2018-08-16T03:54:33.189Z,70.00
2018-08-16T03:57:01.682Z,69.20
2018-08-16T03:59:30.170Z,69.30
2018-08-16T04:01:58.656Z,69.50
2018-08-16T04:04:27.289Z,69.40
2018-08-16T04:06:55.910Z,69.50
2018-08-16T04:09:24.564Z,69.40
2018-08-16T04:11:53.084Z,69.60
2018-08-16T04:14:21.575Z,69.50
2018-08-16T04:16:50.069Z,69.60
2018-08-16T04:19:18.571Z,69.70
2018-08-16T04:21:47.062Z,69.80
2018-08-16T04:24:15.637Z,69.60
2018-08-16T04:26:44.119Z,69.70
2018-08-16T04:29:12.716Z,70.00
2018-08-16T04:31:41.239Z,70.10
2018-08-16T04:34:09.834Z,70.10
2018-08-16T04:36:38.334Z,70.20
2018-08-16T04:39:08.009Z,70.30
2018-08-16T04:41:36.560Z,70.40
2018-08-16T04:44:05.134Z,70.40
2018-08-16T04:46:33.678Z,70.50
2018-08-16T04:49:02.208Z,70.40
2018-08-16T04:51:30.711Z,70.40
2018-08-16T04:53:59.280Z,70.50
2018-08-16T04:56:27.900Z,70.50
2018-08-16T04:58:56.491Z,70.50
2018-08-16T05:01:25.015Z,70.60
2018-08-16T05:03:53.670Z,70.20
2018-08-16T05:06:22.224Z,70.30
2018-08-16T05:08:50.717Z,70.00
2018-08-16T05:11:19.369Z,70.10
2018-08-16T05:13:48.015Z,70.00
2018-08-16T05:16:16.504Z,70.30
2018-08-16T05:18:45.188Z,70.30
2018-08-16T05:21:13.676Z,70.20
2018-08-16T05:23:42.287Z,70.40
2018-08-16T05:26:10.802Z,70.50
2018-08-16T05:28:39.339Z,70.40
2018-08-16T05:31:08.015Z,70.20
2018-08-16T05:33:36.640Z,70.10
2018-08-16T05:36:05.144Z,70.10
2018-08-16T05:38:33.675Z,70.20
2018-08-16T05:41:02.254Z,73.00
2018-08-16T05:43:30.937Z,72.20
2018-08-16T05:45:59.408Z,71.10
2018-08-16T05:48:27.952Z,69.80
2018-08-16T05:50:56.547Z,68.80
2018-08-16T05:53:25.114Z,69.40
2018-08-16T05:55:53.716Z,68.50
2018-08-16T05:58:22.249Z,69.40
2018-08-16T06:00:50.779Z,68.50
2018-08-16T06:03:19.355Z,69.00
2018-08-16T06:05:47.967Z,68.20
2018-08-16T06:08:16.559Z,67.50
2018-08-16T06:10:45.088Z,67.80
2018-08-16T06:13:13.613Z,67.70
2018-08-16T06:15:42.192Z,67.40
2018-08-16T06:18:10.683Z,67.30
2018-08-16T06:20:39.395Z,67.50
2018-08-16T06:23:07.951Z,67.50
2018-08-16T06:25:36.610Z,67.60
2018-08-16T06:28:05.279Z,67.50
2018-08-16T06:30:33.832Z,67.20
2018-08-16T06:33:02.356Z,67.30
2018-08-16T06:35:31.029Z,67.20
2018-08-16T06:37:59.743Z,67.50
2018-08-16T06:40:28.472Z,67.50
2018-08-16T06:42:56.988Z,67.40
2018-08-16T06:45:25.507Z,67.70
2018-08-16T06:47:53.967Z,67.50
2018-08-16T06:50:22.517Z,67.20
2018-08-16T06:52:51.039Z,67.70
2018-08-16T06:55:19.583Z,67.20
2018-08-16T06:57:48.091Z,66.70
2018-08-16T07:00:16.659Z,67.00
2018-08-16T07:02:45.237Z,67.50
2018-08-16T07:05:13.750Z,67.00
2018-08-16T07:07:42.289Z,66.70
2018-08-16T07:10:12.639Z,67.40
2018-08-16T07:12:41.240Z,66.10
2018-08-16T07:15:13.059Z,66.30
2018-08-16T07:17:42.131Z,66.10
2018-08-16T07:20:10.847Z,65.80
2018-08-16T07:22:39.396Z,65.70
2018-08-16T07:25:08.758Z,65.50
2018-08-16T07:27:37.384Z,65.40
2018-08-16T07:30:07.651Z,65.20
2018-08-16T07:32:36.160Z,65.20
2018-08-16T07:35:05.154Z,65.00
2018-08-16T07:37:33.698Z,64.70
2018-08-16T07:40:02.262Z,65.40
2018-08-16T07:42:31.057Z,64.10
2018-08-16T07:44:59.590Z,64.20
2018-08-16T07:47:28.251Z,64.30
2018-08-16T07:49:56.765Z,64.30
2018-08-16T07:52:25.328Z,63.80
2018-08-16T07:54:53.839Z,63.40
2018-08-16T07:57:22.490Z,63.00
2018-08-16T07:59:51.024Z,63.10
2018-08-16T08:02:19.571Z,62.90
2018-08-16T08:04:48.128Z,62.50
2018-08-16T08:07:16.683Z,62.50
2018-08-16T08:09:45.530Z,62.00
2018-08-16T08:12:14.015Z,61.70
2018-08-16T08:14:42.690Z,61.30
2018-08-16T08:17:11.207Z,59.80
2018-08-16T08:19:39.844Z,59.70
2018-08-16T08:22:08.454Z,59.40
2018-08-16T08:24:37.036Z,58.80
2018-08-16T08:27:05.973Z,58.80
2018-08-16T08:29:34.494Z,58.40
2018-08-16T08:32:03.342Z,58.60
2018-08-16T08:34:31.863Z,58.50
2018-08-16T08:38:11.415Z,57.70
2018-08-16T08:40:39.988Z,57.90
2018-08-16T08:43:09.448Z,57.70
2018-08-16T08:45:38.129Z,57.70
2018-08-16T08:48:06.744Z,57.90
2018-08-16T08:50:35.295Z,57.70
2018-08-16T08:53:14.889Z,58.50
2018-08-16T08:55:54.531Z,57.80
2018-08-16T08:58:39.569Z,57.30
2018-08-16T09:01:08.093Z,57.60
2018-08-16T09:03:36.612Z,57.30
2018-08-16T09:06:05.135Z,57.20
2018-08-16T09:08:33.628Z,57.10
2018-08-16T09:11:16.842Z,56.70
2018-08-16T09:14:06.530Z,56.80
2018-08-16T09:16:36.352Z,57.10
2018-08-16T09:19:05.508Z,56.40
2018-08-16T09:21:34.526Z,55.90
2018-08-16T09:24:03.144Z,55.90
2018-08-16T09:26:37.066Z,55.90
2018-08-16T09:29:16.809Z,55.60
2018-08-16T09:31:56.547Z,55.50
2018-08-16T09:34:26.287Z,55.70
2018-08-16T09:36:54.902Z,55.40
2018-08-16T09:39:23.516Z,55.40
2018-08-16T09:41:52.009Z,55.50
2018-08-16T09:44:20.489Z,54.80
2018-08-16T09:47:10.466Z,54.00
2018-08-16T09:49:44.199Z,53.60
2018-08-16T09:52:13.644Z,53.40
2018-08-16T09:54:42.314Z,53.40
2018-08-16T09:57:12.143Z,52.30
2018-08-16T09:59:40.898Z,50.90
2018-08-16T10:02:12.017Z,50.70
2018-08-16T10:04:40.628Z,49.80
2018-08-16T10:07:09.168Z,49.50
2018-08-16T10:09:37.758Z,48.80
2018-08-16T10:12:06.280Z,48.60
2018-08-16T10:14:34.863Z,47.90
2018-08-16T10:17:03.381Z,48.40
2018-08-16T10:19:31.975Z,48.50
2018-08-16T10:22:00.536Z,48.40
2018-08-16T10:24:29.197Z,48.00
2018-08-16T10:26:57.876Z,47.60
2018-08-16T10:29:26.422Z,47.50
2018-08-16T10:31:55.033Z,47.80
2018-08-16T10:34:23.723Z,47.20
2018-08-16T10:36:52.236Z,47.60
2018-08-16T10:39:20.909Z,47.70
2018-08-16T10:41:49.525Z,46.50
2018-08-16T10:44:18.097Z,46.20
2018-08-16T10:46:46.664Z,45.70
2018-08-16T10:49:15.344Z,45.90
2018-08-16T10:51:43.858Z,46.00
2018-08-16T10:54:12.365Z,45.70
2018-08-16T10:56:40.940Z,44.90
2018-08-16T10:59:09.517Z,45.60
2018-08-16T11:01:38.201Z,45.20
2018-08-16T11:04:06.764Z,44.90
2018-08-16T11:06:35.376Z,44.40
2018-08-16T11:09:05.916Z,44.40
2018-08-16T11:11:34.861Z,44.10
2018-08-16T11:14:03.414Z,44.50
2018-08-16T11:16:31.947Z,44.10
2018-08-16T11:19:00.766Z,43.60
2018-08-16T11:21:29.144Z,43.70
2018-08-16T11:23:57.771Z,43.40
2018-08-16T11:26:26.383Z,44.30
2018-08-16T11:28:54.991Z,42.90
2018-08-16T11:31:23.600Z,42.30
2018-08-16T11:33:52.112Z,42.30
2018-08-16T11:36:20.615Z,41.70
2018-08-16T11:38:49.273Z,41.70
2018-08-16T11:41:17.830Z,41.00
2018-08-16T11:43:46.321Z,40.20
2018-08-16T11:46:14.872Z,40.50
2018-08-16T11:48:43.408Z,41.30
2018-08-16T11:51:11.909Z,40.30
2018-08-16T11:53:40.449Z,40.10
2018-08-16T11:56:09.009Z,39.90
2018-08-16T11:58:37.598Z,40.10
2018-08-16T12:01:06.652Z,40.20
2018-08-16T12:03:35.296Z,39.70
2018-08-16T12:06:03.928Z,39.50
2018-08-16T12:08:32.463Z,39.40
2018-08-16T12:11:01.030Z,39.40
2018-08-16T12:13:29.552Z,38.70
2018-08-16T12:15:58.121Z,38.40
2018-08-16T12:18:26.844Z,38.40
2018-08-16T12:20:55.403Z,38.10
2018-08-16T12:23:23.953Z,38.50
2018-08-16T12:25:52.636Z,37.50
2018-08-16T12:28:22.037Z,37.70
2018-08-16T12:30:50.728Z,37.30
2018-08-16T12:33:19.400Z,37.30
2018-08-16T12:35:47.972Z,37.10
2018-08-16T12:38:16.587Z,37.00
2018-08-16T12:40:45.317Z,37.00
2018-08-16T12:43:13.849Z,36.70
2018-08-16T12:45:42.419Z,36.50
2018-08-16T12:48:10.933Z,35.90
2018-08-16T12:50:39.560Z,35.80
2018-08-16T12:53:08.340Z,35.80
2018-08-16T12:55:36.947Z,35.80
2018-08-16T12:58:05.476Z,35.70
2018-08-16T13:00:34.122Z,35.00
2018-08-16T13:03:02.767Z,35.20
2018-08-16T13:05:31.301Z,34.60
2018-08-16T13:07:59.961Z,35.30
2018-08-16T13:10:28.501Z,34.40
2018-08-16T13:12:57.094Z,34.40
2018-08-16T13:15:25.577Z,34.70
2018-08-16T13:17:54.112Z,34.50
2018-08-16T13:20:22.596Z,33.40
2018-08-16T13:22:51.156Z,33.30
2018-08-16T13:25:19.703Z,33.20
2018-08-16T13:27:48.259Z,33.10
2018-08-16T13:30:16.788Z,33.00
2018-08-16T13:32:45.336Z,33.10
2018-08-16T13:35:13.940Z,33.40
2018-08-16T13:37:42.592Z,32.90
2018-08-16T13:40:11.261Z,32.80
2018-08-16T13:42:39.840Z,32.80
2018-08-16T13:45:08.412Z,31.80
2018-08-16T13:47:36.960Z,32.00
2018-08-16T13:50:05.680Z,32.20
2018-08-16T13:52:34.216Z,32.30
2018-08-16T13:55:02.891Z,32.10
2018-08-16T13:57:31.431Z,31.60
2018-08-16T14:00:00.163Z,32.40
2018-08-16T14:02:28.705Z,31.10
2018-08-16T14:04:57.420Z,31.20
2018-08-16T14:07:25.903Z,30.90
2018-08-16T14:09:54.450Z,30.60
2018-08-16T14:12:23.020Z,30.70
2018-08-16T14:14:51.522Z,30.10
2018-08-16T14:17:20.201Z,30.40
2018-08-16T14:19:48.692Z,30.20
2018-08-16T14:22:17.430Z,30.90
2018-08-16T14:24:46.069Z,30.70
2018-08-16T14:27:14.603Z,30.60
2018-08-16T14:29:43.307Z,30.70
2018-08-16T14:32:11.932Z,30.80
2018-08-16T14:34:40.397Z,30.60
2018-08-16T14:37:09.084Z,31.10
2018-08-16T14:39:37.636Z,31.00
2018-08-16T14:42:06.256Z,30.70
2018-08-16T14:44:34.774Z,30.80
2018-08-16T14:47:03.592Z,30.70
2018-08-16T14:49:32.076Z,30.60
2018-08-16T14:52:00.635Z,30.50
2018-08-16T14:54:29.102Z,30.20
2018-08-16T14:56:57.728Z,30.20
2018-08-16T14:59:26.416Z,30.40
2018-08-16T15:01:54.946Z,30.40
2018-08-16T15:04:23.725Z,30.40
2018-08-16T15:06:52.287Z,30.00
2018-08-16T15:09:20.985Z,30.50
2018-08-16T15:11:49.516Z,30.00
2018-08-16T15:14:18.189Z,30.10
2018-08-16T15:16:46.758Z,30.30
2018-08-16T15:19:15.272Z,30.00
2018-08-16T15:21:43.763Z,30.00
2018-08-16T15:24:13.712Z,29.90
2018-08-16T15:26:42.492Z,30.30
2018-08-16T15:29:11.027Z,30.10
2018-08-16T15:31:39.577Z,30.30
2018-08-16T15:34:08.854Z,30.70
2018-08-16T15:36:37.407Z,30.90
2018-08-16T15:39:08.113Z,30.10
2018-08-16T15:41:37.011Z,30.40
2018-08-16T15:44:06.170Z,30.00
2018-08-16T15:46:34.843Z,30.10
2018-08-16T15:49:03.492Z,30.10
2018-08-16T15:51:32.240Z,29.70
2018-08-16T15:54:01.224Z,30.60
2018-08-16T15:56:29.872Z,29.80
2018-08-16T15:58:58.519Z,30.00
2018-08-16T16:01:27.210Z,29.80
2018-08-16T16:03:55.778Z,30.00
2018-08-16T16:06:24.677Z,30.00
2018-08-16T16:08:53.077Z,30.10
2018-08-16T16:11:21.767Z,30.20
2018-08-16T16:13:50.436Z,30.40
2018-08-16T16:16:19.251Z,30.40
2018-08-16T16:18:47.808Z,30.30
2018-08-16T16:21:16.326Z,30.40
2018-08-16T16:23:44.928Z,30.40
2018-08-16T16:26:13.437Z,30.90
2018-08-16T16:28:41.980Z,31.40
2018-08-16T16:31:10.549Z,30.60
2018-08-16T16:33:39.131Z,30.70
2018-08-16T16:36:07.756Z,30.70
2018-08-16T16:38:36.336Z,31.20
2018-08-16T16:41:05.043Z,31.10
2018-08-16T16:43:33.626Z,31.70
2018-08-16T16:46:02.206Z,31.90
2018-08-16T16:48:30.980Z,32.20
2018-08-16T16:50:59.623Z,32.50
2018-08-16T16:53:28.253Z,32.80
2018-08-16T16:55:57.020Z,32.80
2018-08-16T16:58:25.770Z,32.90
2018-08-16T17:00:54.506Z,32.90
2018-08-16T17:03:23.083Z,33.10
2018-08-16T17:05:52.611Z,33.30
2018-08-16T17:08:21.364Z,33.50
2018-08-16T17:10:49.961Z,34.00
2018-08-16T17:13:18.785Z,33.90
2018-08-16T17:15:47.449Z,34.00
2018-08-16T17:18:15.993Z,34.20
2018-08-16T17:20:44.693Z,34.20
2018-08-16T17:23:13.339Z,34.40
2018-08-16T17:25:41.883Z,34.70
2018-08-16T17:28:10.413Z,34.80
2018-08-16T17:30:38.949Z,35.30
2018-08-16T17:33:07.634Z,35.20
2018-08-16T17:35:36.365Z,35.40
2018-08-16T17:38:05.357Z,35.40
2018-08-16T17:40:33.942Z,35.60
2018-08-16T17:43:02.571Z,36.00
2018-08-16T17:45:31.217Z,36.30
2018-08-16T17:47:59.799Z,36.20
2018-08-16T17:50:28.392Z,36.20
2018-08-16T17:52:57.101Z,36.40
2018-08-16T17:55:26.167Z,36.70
2018-08-16T17:57:54.916Z,37.50
2018-08-16T18:00:23.781Z,37.60
2018-08-16T18:02:52.392Z,37.60
2018-08-16T18:05:21.348Z,37.90
2018-08-16T18:07:49.980Z,38.30
2018-08-16T18:10:18.565Z,38.40
2018-08-16T18:12:47.263Z,38.20
2018-08-16T18:15:15.938Z,38.40
2018-08-16T18:17:44.553Z,38.50
2018-08-16T18:20:13.183Z,38.70
2018-08-16T18:22:41.714Z,39.40
2018-08-16T18:25:10.604Z,39.50
2018-08-16T18:27:39.218Z,39.80
2018-08-16T18:30:09.595Z,40.30
2018-08-16T18:32:38.125Z,40.70
2018-08-16T18:35:06.716Z,41.30
2018-08-16T18:37:35.399Z,41.60
2018-08-16T18:40:04.405Z,41.80
2018-08-16T18:42:33.084Z,42.00
2018-08-16T18:45:01.697Z,41.70
2018-08-16T18:47:30.572Z,42.20
2018-08-16T18:49:59.205Z,42.20
2018-08-16T18:52:28.354Z,42.10
2018-08-16T18:54:56.899Z,41.80
2018-08-16T18:57:25.557Z,41.30
2018-08-16T18:59:54.178Z,41.30
2018-08-16T19:02:23.032Z,41.30
2018-08-16T19:04:51.759Z,41.50
2018-08-16T19:07:20.540Z,41.50
2018-08-16T19:09:49.202Z,42.30
2018-08-16T19:12:17.994Z,43.00
2018-08-16T19:14:46.550Z,43.40
2018-08-16T19:17:15.381Z,43.70
2018-08-16T19:19:44.201Z,44.20
2018-08-16T19:22:13.042Z,44.60
2018-08-16T19:24:41.848Z,45.00
2018-08-16T19:27:10.598Z,45.10
2018-08-16T19:29:39.370Z,45.30
2018-08-16T19:32:08.139Z,45.50
2018-08-16T19:34:36.679Z,45.70
2018-08-16T19:37:05.711Z,45.80
2018-08-16T19:39:34.445Z,46.20
2018-08-16T19:42:03.107Z,46.40
2018-08-16T19:44:31.674Z,46.60
2018-08-16T19:47:00.482Z,46.80
2018-08-16T19:49:29.179Z,47.60
2018-08-16T19:51:58.029Z,46.40
2018-08-16T19:54:26.856Z,46.00
2018-08-16T19:56:55.648Z,45.90
2018-08-16T19:59:24.399Z,46.70
2018-08-16T20:01:53.089Z,46.90
2018-08-16T20:04:21.745Z,47.10
2018-08-16T20:06:50.510Z,47.10
2018-08-16T20:09:19.118Z,47.00
2018-08-16T20:11:47.883Z,47.30
2018-08-16T20:14:16.711Z,47.10
2018-08-16T20:16:45.364Z,47.10
2018-08-16T20:19:14.028Z,47.70
2018-08-16T20:21:42.799Z,48.10
2018-08-16T20:24:11.490Z,48.00
2018-08-16T20:26:40.272Z,47.50
2018-08-16T20:29:08.822Z,46.90
2018-08-16T20:31:37.532Z,46.60
2018-08-16T20:34:06.091Z,46.70
2018-08-16T20:36:34.803Z,46.90
2018-08-16T20:39:04.871Z,47.00
2018-08-16T20:41:33.476Z,47.60
2018-08-16T20:44:02.071Z,47.80
2018-08-16T20:46:30.723Z,47.60
2018-08-16T20:48:59.533Z,47.40
2018-08-16T20:51:28.245Z,48.20
2018-08-16T20:53:57.005Z,48.80
2018-08-16T20:56:25.880Z,48.90
2018-08-16T20:58:54.476Z,49.00
2018-08-16T21:01:23.148Z,48.90
2018-08-16T21:03:51.797Z,49.20
2018-08-16T21:06:20.416Z,48.90
2018-08-16T21:08:49.086Z,48.90
2018-08-16T21:11:17.712Z,48.90
2018-08-16T21:13:46.241Z,49.30
2018-08-16T21:16:14.984Z,49.20
2018-08-16T21:18:43.667Z,48.80
2018-08-16T21:21:12.305Z,49.50
2018-08-16T21:23:40.892Z,48.70
2018-08-16T21:26:09.457Z,48.60
2018-08-16T21:28:38.012Z,48.80
2018-08-16T21:31:07.117Z,49.20
2018-08-16T21:33:35.770Z,49.50
2018-08-16T21:36:04.368Z,49.80
2018-08-16T21:38:32.946Z,50.30
2018-08-16T21:41:01.691Z,50.20
2018-08-16T21:43:30.379Z,50.60
2018-08-16T21:45:58.916Z,50.80
2018-08-16T21:48:27.451Z,50.90
2018-08-16T21:50:55.995Z,51.20
2018-08-16T21:53:24.673Z,51.30
2018-08-16T21:55:53.417Z,51.70
2018-08-16T21:58:21.941Z,51.60
2018-08-16T22:00:52.745Z,51.70
2018-08-16T22:03:22.620Z,52.20
2018-08-16T22:06:02.492Z,52.20
2018-08-16T22:08:39.873Z,52.40
2018-08-16T22:11:08.898Z,52.60
2018-08-16T22:13:37.763Z,52.60
2018-08-16T22:16:06.656Z,52.60
2018-08-16T22:18:35.321Z,52.90
2018-08-16T22:21:03.876Z,53.30
2018-08-16T22:23:32.628Z,53.90
2018-08-16T22:26:01.235Z,53.30
2018-08-16T22:28:29.800Z,53.60
2018-08-16T22:30:58.775Z,53.70
2018-08-16T22:33:27.312Z,53.60
2018-08-16T22:35:56.215Z,53.70
2018-08-16T22:38:24.920Z,53.80
2018-08-16T22:40:53.552Z,54.40
2018-08-16T22:43:22.107Z,54.00
2018-08-16T22:45:50.724Z,54.20
2018-08-16T22:48:19.227Z,54.10
2018-08-16T22:50:47.808Z,54.30
2018-08-16T22:53:16.337Z,54.30
2018-08-16T22:55:44.955Z,54.50
2018-08-16T22:58:13.525Z,54.70
2018-08-16T23:00:42.047Z,54.70
2018-08-16T23:03:10.946Z,54.90
2018-08-16T23:05:39.532Z,55.00
2018-08-16T23:08:08.398Z,55.10
2018-08-16T23:10:37.044Z,55.30
2018-08-16T23:13:05.747Z,55.20
2018-08-16T23:15:34.396Z,55.40
2018-08-16T23:18:02.880Z,55.50
2018-08-16T23:20:31.604Z,55.70
2018-08-16T23:23:00.223Z,55.80
2018-08-16T23:25:28.831Z,55.80
2018-08-16T23:27:57.312Z,55.90
2018-08-16T23:30:25.943Z,56.00
2018-08-16T23:32:54.403Z,56.10
2018-08-16T23:35:22.945Z,56.30
2018-08-16T23:37:51.506Z,56.30
2018-08-16T23:40:20.041Z,56.50
2018-08-16T23:42:48.801Z,56.50
2018-08-16T23:45:17.390Z,56.50
2018-08-16T23:47:57.215Z,56.60
2018-08-16T23:50:25.744Z,56.80
2018-08-16T23:52:54.343Z,57.00
2018-08-16T23:55:22.857Z,57.00
2018-08-16T23:57:51.478Z,57.20
